Terminal Aerodrome Forecast
Issued by NWS

Home | Current Version | Previous Version | Graphics & Text | Print | Product List | Glossary On
Versions: 1 2 3 4 5 6 7 8 9 10 11 12 13 14 15
000
FTUS43 KICT 202322
TAFSLN
TAF
KSLN 202322Z 2100/2124 05010KT P6SM FEW250
     FM210700 07004KT P6SM BKN110
     FM211200 06011KT P6SM BKN120
     FM211500 06013KT P6SM VCSH BKN090
     FM211800 06014KT P6SM -SHRA OVC070
     FM212200 04014KT P6SM -SHRA OVC030=

USA.gov is the U.S. government's official web portal to all federal, state and local government web resources and services.